sensor_id;sensor_type;location;lat;lon;timestamp;P1;durP1;ratioP1;P2;durP2;ratioP2
19225;SDS011;9747;48.536;12.522;2023-09-08T00:01:42;3.80;;;3.50;;
19225;SDS011;9747;48.536;12.522;2023-09-08T00:04:10;3.95;;;3.53;;
19225;SDS011;9747;48.536;12.522;2023-09-08T00:06:39;3.92;;;3.63;;
19225;SDS011;9747;48.536;12.522;2023-09-08T00:09:07;3.75;;;3.45;;
19225;SDS011;9747;48.536;12.522;2023-09-08T00:11:34;3.88;;;3.53;;
19225;SDS011;9747;48.536;12.522;2023-09-08T00:14:02;3.90;;;3.50;;
19225;SDS011;9747;48.536;12.522;2023-09-08T00:16:29;3.60;;;3.30;;
19225;SDS011;9747;48.536;12.522;2023-09-08T00:18:57;3.83;;;3.45;;
19225;SDS011;9747;48.536;12.522;2023-09-08T00:21:26;3.80;;;3.50;;
19225;SDS011;9747;48.536;12.522;2023-09-08T00:23:54;3.90;;;3.50;;
19225;SDS011;9747;48.536;12.522;2023-09-08T00:26:21;3.90;;;3.55;;
19225;SDS011;9747;48.536;12.522;2023-09-08T00:28:49;4.05;;;3.67;;
19225;SDS011;9747;48.536;12.522;2023-09-08T00:31:17;3.80;;;3.50;;
19225;SDS011;9747;48.536;12.522;2023-09-08T00:33:44;4.00;;;3.70;;
19225;SDS011;9747;48.536;12.522;2023-09-08T00:36:12;4.15;;;3.85;;
19225;SDS011;9747;48.536;12.522;2023-09-08T00:38:41;3.92;;;3.63;;
19225;SDS011;9747;48.536;12.522;2023-09-08T00:41:09;3.75;;;3.45;;
19225;SDS011;9747;48.536;12.522;2023-09-08T00:43:36;3.72;;;3.42;;
19225;SDS011;9747;48.536;12.522;2023-09-08T00:46:04;3.55;;;3.25;;
19225;SDS011;9747;48.536;12.522;2023-09-08T00:48:31;3.80;;;3.50;;
19225;SDS011;9747;48.536;12.522;2023-09-08T00:51:00;3.70;;;3.40;;
19225;SDS011;9747;48.536;12.522;2023-09-08T00:53:27;4.30;;;4.00;;
19225;SDS011;9747;48.536;12.522;2023-09-08T00:55:57;3.75;;;3.45;;
19225;SDS011;9747;48.536;12.522;2023-09-08T00:58:26;3.85;;;3.55;;
19225;SDS011;9747;48.536;12.522;2023-09-08T01:00:53;4.35;;;4.05;;
19225;SDS011;9747;48.536;12.522;2023-09-08T01:03:22;4.05;;;3.75;;
19225;SDS011;9747;48.536;12.522;2023-09-08T01:05:50;4.03;;;3.72;;
19225;SDS011;9747;48.536;12.522;2023-09-08T01:08:18;4.43;;;4.05;;
19225;SDS011;9747;48.536;12.522;2023-09-08T01:10:47;3.63;;;3.33;;
19225;SDS011;9747;48.536;12.522;2023-09-08T01:13:16;3.60;;;3.30;;
19225;SDS011;9747;48.536;12.522;2023-09-08T01:15:43;3.75;;;3.45;;
19225;SDS011;9747;48.536;12.522;2023-09-08T01:18:11;4.40;;;4.00;;
19225;SDS011;9747;48.536;12.522;2023-09-08T01:20:43;4.18;;;3.70;;
19225;SDS011;9747;48.536;12.522;2023-09-08T01:23:34;3.80;;;3.50;;
19225;SDS011;9747;48.536;12.522;2023-09-08T01:26:10;3.88;;;3.58;;
19225;SDS011;9747;48.536;12.522;2023-09-08T01:28:41;4.40;;;4.00;;
19225;SDS011;9747;48.536;12.522;2023-09-08T01:31:09;4.15;;;3.85;;
19225;SDS011;9747;48.536;12.522;2023-09-08T01:33:36;3.75;;;3.45;;
19225;SDS011;9747;48.536;12.522;2023-09-08T01:36:04;4.47;;;4.13;;
19225;SDS011;9747;48.536;12.522;2023-09-08T01:38:33;4.13;;;3.83;;
19225;SDS011;9747;48.536;12.522;2023-09-08T01:41:00;3.80;;;3.60;;
19225;SDS011;9747;48.536;12.522;2023-09-08T01:43:29;4.03;;;3.72;;
19225;SDS011;9747;48.536;12.522;2023-09-08T01:45:57;4.05;;;3.75;;
19225;SDS011;9747;48.536;12.522;2023-09-08T01:48:24;4.05;;;3.65;;
19225;SDS011;9747;48.536;12.522;2023-09-08T01:50:51;3.95;;;3.65;;
19225;SDS011;9747;48.536;12.522;2023-09-08T01:53:19;4.63;;;3.70;;
19225;SDS011;9747;48.536;12.522;2023-09-08T01:55:47;4.30;;;4.00;;
19225;SDS011;9747;48.536;12.522;2023-09-08T01:58:15;4.38;;;4.00;;
19225;SDS011;9747;48.536;12.522;2023-09-08T02:00:47;3.97;;;3.67;;
19225;SDS011;9747;48.536;12.522;2023-09-08T02:03:15;3.83;;;3.35;;
19225;SDS011;9747;48.536;12.522;2023-09-08T02:05:43;4.35;;;3.83;;
19225;SDS011;9747;48.536;12.522;2023-09-08T02:08:11;3.72;;;3.42;;
19225;SDS011;9747;48.536;12.522;2023-09-08T02:10:40;4.13;;;3.80;;
19225;SDS011;9747;48.536;12.522;2023-09-08T02:13:07;4.18;;;3.88;;
19225;SDS011;9747;48.536;12.522;2023-09-08T02:15:35;4.25;;;3.85;;
19225;SDS011;9747;48.536;12.522;2023-09-08T02:18:05;5.05;;;4.13;;
19225;SDS011;9747;48.536;12.522;2023-09-08T02:20:33;3.65;;;3.35;;
19225;SDS011;9747;48.536;12.522;2023-09-08T02:23:04;4.38;;;3.80;;
19225;SDS011;9747;48.536;12.522;2023-09-08T02:25:33;3.90;;;3.60;;
19225;SDS011;9747;48.536;12.522;2023-09-08T02:28:00;4.22;;;3.50;;
19225;SDS011;9747;48.536;12.522;2023-09-08T02:30:28;4.25;;;3.90;;
19225;SDS011;9747;48.536;12.522;2023-09-08T02:32:56;4.43;;;3.70;;
19225;SDS011;9747;48.536;12.522;2023-09-08T02:35:24;4.20;;;3.80;;
19225;SDS011;9747;48.536;12.522;2023-09-08T02:37:54;4.22;;;3.85;;
19225;SDS011;9747;48.536;12.522;2023-09-08T02:40:22;4.20;;;3.80;;
19225;SDS011;9747;48.536;12.522;2023-09-08T02:42:50;4.82;;;3.70;;
19225;SDS011;9747;48.536;12.522;2023-09-08T02:45:17;4.13;;;3.80;;
19225;SDS011;9747;48.536;12.522;2023-09-08T02:47:45;4.07;;;3.67;;
19225;SDS011;9747;48.536;12.522;2023-09-08T02:50:12;3.75;;;3.55;;
19225;SDS011;9747;48.536;12.522;2023-09-08T02:52:41;4.05;;;3.75;;
19225;SDS011;9747;48.536;12.522;2023-09-08T02:55:09;3.92;;;3.63;;
19225;SDS011;9747;48.536;12.522;2023-09-08T02:57:36;4.00;;;3.70;;
19225;SDS011;9747;48.536;12.522;2023-09-08T03:00:06;4.35;;;3.95;;
19225;SDS011;9747;48.536;12.522;2023-09-08T03:02:34;4.07;;;3.78;;
19225;SDS011;9747;48.536;12.522;2023-09-08T03:05:02;3.88;;;3.58;;
19225;SDS011;9747;48.536;12.522;2023-09-08T03:07:31;3.63;;;3.33;;
19225;SDS011;9747;48.536;12.522;2023-09-08T03:10:04;4.20;;;3.90;;
19225;SDS011;9747;48.536;12.522;2023-09-08T03:12:33;4.30;;;3.90;;
19225;SDS011;9747;48.536;12.522;2023-09-08T03:15:01;4.18;;;3.88;;
19225;SDS011;9747;48.536;12.522;2023-09-08T03:17:29;3.95;;;3.65;;
19225;SDS011;9747;48.536;12.522;2023-09-08T03:19:57;3.97;;;3.67;;
19225;SDS011;9747;48.536;12.522;2023-09-08T03:22:25;4.95;;;4.05;;
19225;SDS011;9747;48.536;12.522;2023-09-08T03:24:53;3.72;;;3.38;;
19225;SDS011;9747;48.536;12.522;2023-09-08T03:27:22;4.18;;;3.78;;
19225;SDS011;9747;48.536;12.522;2023-09-08T03:29:49;3.70;;;3.40;;
19225;SDS011;9747;48.536;12.522;2023-09-08T03:32:17;4.05;;;3.60;;
19225;SDS011;9747;48.536;12.522;2023-09-08T03:34:44;4.10;;;3.80;;
19225;SDS011;9747;48.536;12.522;2023-09-08T03:37:12;4.10;;;3.70;;
19225;SDS011;9747;48.536;12.522;2023-09-08T03:39:40;4.10;;;3.80;;
19225;SDS011;9747;48.536;12.522;2023-09-08T03:42:08;4.20;;;3.90;;
19225;SDS011;9747;48.536;12.522;2023-09-08T03:44:36;3.75;;;3.55;;
19225;SDS011;9747;48.536;12.522;2023-09-08T03:47:04;4.32;;;4.03;;
19225;SDS011;9747;48.536;12.522;2023-09-08T03:49:32;4.38;;;3.97;;
19225;SDS011;9747;48.536;12.522;2023-09-08T03:51:59;4.05;;;3.75;;
19225;SDS011;9747;48.536;12.522;2023-09-08T03:54:26;4.03;;;3.70;;
19225;SDS011;9747;48.536;12.522;2023-09-08T03:56:54;3.95;;;3.65;;
19225;SDS011;9747;48.536;12.522;2023-09-08T03:59:22;3.92;;;3.63;;
19225;SDS011;9747;48.536;12.522;2023-09-08T04:01:51;3.78;;;3.47;;
19225;SDS011;9747;48.536;12.522;2023-09-08T04:04:18;4.20;;;3.80;;
19225;SDS011;9747;48.536;12.522;2023-09-08T04:06:46;4.03;;;3.72;;
19225;SDS011;9747;48.536;12.522;2023-09-08T04:09:14;3.83;;;3.53;;
19225;SDS011;9747;48.536;12.522;2023-09-08T04:11:41;3.72;;;3.42;;
19225;SDS011;9747;48.536;12.522;2023-09-08T04:14:09;3.88;;;3.58;;
19225;SDS011;9747;48.536;12.522;2023-09-08T04:16:36;4.40;;;3.85;;
19225;SDS011;9747;48.536;12.522;2023-09-08T04:19:05;3.75;;;3.55;;
19225;SDS011;9747;48.536;12.522;2023-09-08T04:21:32;4.32;;;3.97;;
19225;SDS011;9747;48.536;12.522;2023-09-08T04:24:00;4.68;;;3.90;;
19225;SDS011;9747;48.536;12.522;2023-09-08T04:26:28;4.13;;;3.83;;
19225;SDS011;9747;48.536;12.522;2023-09-08T04:28:55;4.60;;;4.20;;
19225;SDS011;9747;48.536;12.522;2023-09-08T04:31:23;3.70;;;3.40;;
19225;SDS011;9747;48.536;12.522;2023-09-08T04:33:50;4.38;;;3.97;;
19225;SDS011;9747;48.536;12.522;2023-09-08T04:36:20;4.13;;;3.75;;
19225;SDS011;9747;48.536;12.522;2023-09-08T04:38:47;4.80;;;4.00;;
19225;SDS011;9747;48.536;12.522;2023-09-08T04:41:14;4.03;;;3.67;;
19225;SDS011;9747;48.536;12.522;2023-09-08T04:43:42;4.45;;;4.05;;
19225;SDS011;9747;48.536;12.522;2023-09-08T04:46:09;4.32;;;4.00;;
19225;SDS011;9747;48.536;12.522;2023-09-08T04:48:37;4.28;;;3.97;;
19225;SDS011;9747;48.536;12.522;2023-09-08T04:51:04;4.20;;;3.90;;
19225;SDS011;9747;48.536;12.522;2023-09-08T04:53:33;4.07;;;3.78;;
19225;SDS011;9747;48.536;12.522;2023-09-08T04:56:01;4.32;;;3.83;;
19225;SDS011;9747;48.536;12.522;2023-09-08T04:58:31;3.83;;;3.58;;
19225;SDS011;9747;48.536;12.522;2023-09-08T05:00:58;4.03;;;3.72;;
19225;SDS011;9747;48.536;12.522;2023-09-08T05:03:26;4.13;;;3.83;;
19225;SDS011;9747;48.536;12.522;2023-09-08T05:05:56;4.25;;;3.85;;
19225;SDS011;9747;48.536;12.522;2023-09-08T05:08:23;4.18;;;3.88;;
19225;SDS011;9747;48.536;12.522;2023-09-08T05:10:52;4.10;;;3.80;;
19225;SDS011;9747;48.536;12.522;2023-09-08T05:13:20;3.80;;;3.50;;
19225;SDS011;9747;48.536;12.522;2023-09-08T05:15:52;5.95;;;4.00;;
19225;SDS011;9747;48.536;12.522;2023-09-08T05:18:27;4.35;;;3.95;;
19225;SDS011;9747;48.536;12.522;2023-09-08T05:20:54;5.40;;;4.25;;
19225;SDS011;9747;48.536;12.522;2023-09-08T05:23:22;4.05;;;3.75;;
19225;SDS011;9747;48.536;12.522;2023-09-08T05:25:49;5.10;;;4.03;;
19225;SDS011;9747;48.536;12.522;2023-09-08T05:28:18;4.22;;;3.72;;
19225;SDS011;9747;48.536;12.522;2023-09-08T05:30:46;4.20;;;3.80;;
19225;SDS011;9747;48.536;12.522;2023-09-08T05:33:13;4.80;;;4.30;;
19225;SDS011;9747;48.536;12.522;2023-09-08T05:35:41;4.20;;;3.80;;
19225;SDS011;9747;48.536;12.522;2023-09-08T05:38:10;6.35;;;3.95;;
19225;SDS011;9747;48.536;12.522;2023-09-08T05:40:39;4.40;;;3.83;;
19225;SDS011;9747;48.536;12.522;2023-09-08T05:43:06;7.25;;;4.05;;
19225;SDS011;9747;48.536;12.522;2023-09-08T05:45:36;10.85;;;4.70;;
19225;SDS011;9747;48.536;12.522;2023-09-08T05:48:04;12.50;;;5.57;;
19225;SDS011;9747;48.536;12.522;2023-09-08T05:50:32;8.88;;;5.57;;
19225;SDS011;9747;48.536;12.522;2023-09-08T05:52:59;10.02;;;6.13;;
19225;SDS011;9747;48.536;12.522;2023-09-08T05:55:27;9.13;;;6.22;;
19225;SDS011;9747;48.536;12.522;2023-09-08T05:57:54;9.82;;;6.18;;
19225;SDS011;9747;48.536;12.522;2023-09-08T06:00:22;7.18;;;6.47;;
19225;SDS011;9747;48.536;12.522;2023-09-08T06:02:52;10.60;;;6.70;;
19225;SDS011;9747;48.536;12.522;2023-09-08T06:05:20;9.13;;;6.35;;
19225;SDS011;9747;48.536;12.522;2023-09-08T06:07:48;9.38;;;6.10;;
19225;SDS011;9747;48.536;12.522;2023-09-08T06:10:16;9.13;;;6.28;;
19225;SDS011;9747;48.536;12.522;2023-09-08T06:12:44;11.77;;;6.72;;
19225;SDS011;9747;48.536;12.522;2023-09-08T06:15:12;8.43;;;6.25;;
19225;SDS011;9747;48.536;12.522;2023-09-08T06:17:39;8.18;;;5.75;;
19225;SDS011;9747;48.536;12.522;2023-09-08T06:20:09;8.02;;;6.28;;
19225;SDS011;9747;48.536;12.522;2023-09-08T06:22:38;8.32;;;6.03;;
19225;SDS011;9747;48.536;12.522;2023-09-08T06:25:06;8.57;;;6.35;;
19225;SDS011;9747;48.536;12.522;2023-09-08T06:27:34;15.23;;;6.85;;
19225;SDS011;9747;48.536;12.522;2023-09-08T06:30:02;7.38;;;6.15;;
19225;SDS011;9747;48.536;12.522;2023-09-08T06:32:32;11.07;;;7.10;;
19225;SDS011;9747;48.536;12.522;2023-09-08T06:35:00;10.50;;;6.72;;
19225;SDS011;9747;48.536;12.522;2023-09-08T06:37:29;7.72;;;6.85;;
19225;SDS011;9747;48.536;12.522;2023-09-08T06:40:00;8.30;;;6.05;;
19225;SDS011;9747;48.536;12.522;2023-09-08T06:42:29;7.55;;;6.18;;
19225;SDS011;9747;48.536;12.522;2023-09-08T06:45:06;9.57;;;6.65;;
19225;SDS011;9747;48.536;12.522;2023-09-08T06:47:35;6.75;;;6.07;;
19225;SDS011;9747;48.536;12.522;2023-09-08T06:50:02;7.82;;;5.85;;
19225;SDS011;9747;48.536;12.522;2023-09-08T06:52:33;6.82;;;5.75;;
19225;SDS011;9747;48.536;12.522;2023-09-08T06:55:01;8.48;;;5.80;;
19225;SDS011;9747;48.536;12.522;2023-09-08T06:57:31;6.93;;;6.13;;
19225;SDS011;9747;48.536;12.522;2023-09-08T06:59:58;6.47;;;5.55;;
19225;SDS011;9747;48.536;12.522;2023-09-08T07:02:25;7.75;;;5.88;;
19225;SDS011;9747;48.536;12.522;2023-09-08T07:04:53;7.10;;;5.68;;
19225;SDS011;9747;48.536;12.522;2023-09-08T07:07:20;7.88;;;5.30;;
19225;SDS011;9747;48.536;12.522;2023-09-08T07:09:50;7.18;;;5.55;;
19225;SDS011;9747;48.536;12.522;2023-09-08T07:12:17;6.35;;;5.10;;
19225;SDS011;9747;48.536;12.522;2023-09-08T07:14:45;6.00;;;5.40;;
19225;SDS011;9747;48.536;12.522;2023-09-08T07:17:13;5.50;;;4.75;;
19225;SDS011;9747;48.536;12.522;2023-09-08T07:19:41;5.90;;;5.28;;
19225;SDS011;9747;48.536;12.522;2023-09-08T07:22:09;6.30;;;4.78;;
19225;SDS011;9747;48.536;12.522;2023-09-08T07:24:36;5.97;;;5.00;;
19225;SDS011;9747;48.536;12.522;2023-09-08T07:27:05;8.73;;;5.20;;
19225;SDS011;9747;48.536;12.522;2023-09-08T07:29:33;5.80;;;5.18;;
19225;SDS011;9747;48.536;12.522;2023-09-08T07:32:01;6.63;;;5.30;;
19225;SDS011;9747;48.536;12.522;2023-09-08T07:34:28;5.00;;;4.60;;
19225;SDS011;9747;48.536;12.522;2023-09-08T07:36:56;9.50;;;5.68;;
19225;SDS011;9747;48.536;12.522;2023-09-08T07:39:23;8.10;;;5.45;;
19225;SDS011;9747;48.536;12.522;2023-09-08T07:41:51;7.10;;;4.95;;
19225;SDS011;9747;48.536;12.522;2023-09-08T07:44:20;5.85;;;5.13;;
19225;SDS011;9747;48.536;12.522;2023-09-08T07:46:49;6.90;;;4.90;;
19225;SDS011;9747;48.536;12.522;2023-09-08T07:49:17;5.80;;;4.85;;
19225;SDS011;9747;48.536;12.522;2023-09-08T07:51:45;6.88;;;4.95;;
19225;SDS011;9747;48.536;12.522;2023-09-08T07:54:13;6.47;;;5.07;;
19225;SDS011;9747;48.536;12.522;2023-09-08T07:56:40;5.75;;;4.68;;
19225;SDS011;9747;48.536;12.522;2023-09-08T07:59:08;5.57;;;4.63;;
19225;SDS011;9747;48.536;12.522;2023-09-08T08:01:36;7.65;;;5.22;;
19225;SDS011;9747;48.536;12.522;2023-09-08T08:04:04;5.82;;;5.00;;
19225;SDS011;9747;48.536;12.522;2023-09-08T08:06:31;5.18;;;4.45;;
19225;SDS011;9747;48.536;12.522;2023-09-08T08:08:59;5.93;;;5.30;;
19225;SDS011;9747;48.536;12.522;2023-09-08T08:11:26;5.20;;;4.70;;
19225;SDS011;9747;48.536;12.522;2023-09-08T08:13:54;6.63;;;5.40;;
19225;SDS011;9747;48.536;12.522;2023-09-08T08:16:22;5.85;;;5.25;;
19225;SDS011;9747;48.536;12.522;2023-09-08T08:18:51;5.82;;;5.22;;
19225;SDS011;9747;48.536;12.522;2023-09-08T08:21:18;7.20;;;5.45;;
19225;SDS011;9747;48.536;12.522;2023-09-08T08:23:47;5.30;;;4.80;;
19225;SDS011;9747;48.536;12.522;2023-09-08T08:26:15;6.18;;;4.95;;
19225;SDS011;9747;48.536;12.522;2023-09-08T08:28:43;6.45;;;5.25;;
19225;SDS011;9747;48.536;12.522;2023-09-08T08:31:12;5.20;;;4.70;;
19225;SDS011;9747;48.536;12.522;2023-09-08T08:33:39;5.90;;;5.22;;
19225;SDS011;9747;48.536;12.522;2023-09-08T08:36:09;8.82;;;5.30;;
19225;SDS011;9747;48.536;12.522;2023-09-08T08:38:36;6.28;;;5.10;;
19225;SDS011;9747;48.536;12.522;2023-09-08T08:41:04;5.55;;;5.05;;
19225;SDS011;9747;48.536;12.522;2023-09-08T08:43:32;5.68;;;4.90;;
19225;SDS011;9747;48.536;12.522;2023-09-08T08:46:00;5.97;;;5.30;;
19225;SDS011;9747;48.536;12.522;2023-09-08T08:48:29;7.93;;;4.75;;
19225;SDS011;9747;48.536;12.522;2023-09-08T08:50:56;5.93;;;4.82;;
19225;SDS011;9747;48.536;12.522;2023-09-08T08:53:26;8.32;;;5.20;;
19225;SDS011;9747;48.536;12.522;2023-09-08T08:55:54;6.70;;;5.30;;
19225;SDS011;9747;48.536;12.522;2023-09-08T08:58:23;5.72;;;4.88;;
19225;SDS011;9747;48.536;12.522;2023-09-08T09:00:52;6.50;;;5.03;;
19225;SDS011;9747;48.536;12.522;2023-09-08T09:03:22;6.28;;;4.70;;
19225;SDS011;9747;48.536;12.522;2023-09-08T09:05:52;6.18;;;5.38;;
19225;SDS011;9747;48.536;12.522;2023-09-08T09:08:19;6.50;;;5.53;;
19225;SDS011;9747;48.536;12.522;2023-09-08T09:10:50;7.55;;;5.30;;
19225;SDS011;9747;48.536;12.522;2023-09-08T09:13:17;7.03;;;5.30;;
19225;SDS011;9747;48.536;12.522;2023-09-08T09:15:45;6.13;;;5.13;;
19225;SDS011;9747;48.536;12.522;2023-09-08T09:18:14;6.63;;;5.18;;
19225;SDS011;9747;48.536;12.522;2023-09-08T09:20:43;6.72;;;5.18;;
19225;SDS011;9747;48.536;12.522;2023-09-08T09:23:26;5.88;;;4.88;;
19225;SDS011;9747;48.536;12.522;2023-09-08T09:25:56;6.25;;;4.68;;
19225;SDS011;9747;48.536;12.522;2023-09-08T09:28:24;5.63;;;4.90;;
19225;SDS011;9747;48.536;12.522;2023-09-08T09:30:53;5.88;;;5.38;;
19225;SDS011;9747;48.536;12.522;2023-09-08T09:33:20;6.20;;;5.13;;
19225;SDS011;9747;48.536;12.522;2023-09-08T09:35:49;8.38;;;5.05;;
19225;SDS011;9747;48.536;12.522;2023-09-08T09:38:18;6.95;;;4.88;;
19225;SDS011;9747;48.536;12.522;2023-09-08T09:40:46;6.30;;;4.90;;
19225;SDS011;9747;48.536;12.522;2023-09-08T09:43:16;6.10;;;5.50;;
19225;SDS011;9747;48.536;12.522;2023-09-08T09:45:46;6.22;;;5.63;;
19225;SDS011;9747;48.536;12.522;2023-09-08T09:48:14;7.35;;;5.05;;
19225;SDS011;9747;48.536;12.522;2023-09-08T09:50:42;9.15;;;5.70;;
19225;SDS011;9747;48.536;12.522;2023-09-08T09:53:10;7.65;;;5.85;;
19225;SDS011;9747;48.536;12.522;2023-09-08T09:55:39;7.22;;;5.68;;
19225;SDS011;9747;48.536;12.522;2023-09-08T09:58:08;7.15;;;5.75;;
19225;SDS011;9747;48.536;12.522;2023-09-08T10:00:38;6.00;;;5.28;;
19225;SDS011;9747;48.536;12.522;2023-09-08T10:03:06;7.35;;;5.28;;
19225;SDS011;9747;48.536;12.522;2023-09-08T10:05:34;6.80;;;5.95;;
19225;SDS011;9747;48.536;12.522;2023-09-08T10:08:02;6.07;;;5.50;;
19225;SDS011;9747;48.536;12.522;2023-09-08T10:10:32;6.53;;;5.50;;
19225;SDS011;9747;48.536;12.522;2023-09-08T10:13:01;6.85;;;5.32;;
19225;SDS011;9747;48.536;12.522;2023-09-08T10:15:33;7.03;;;5.40;;
19225;SDS011;9747;48.536;12.522;2023-09-08T10:18:03;7.30;;;5.78;;
19225;SDS011;9747;48.536;12.522;2023-09-08T10:20:32;6.43;;;5.47;;
19225;SDS011;9747;48.536;12.522;2023-09-08T10:23:04;5.65;;;5.05;;
19225;SDS011;9747;48.536;12.522;2023-09-08T10:25:39;7.25;;;5.68;;
19225;SDS011;9747;48.536;12.522;2023-09-08T10:28:12;6.70;;;5.43;;
19225;SDS011;9747;48.536;12.522;2023-09-08T10:30:40;5.93;;;5.40;;
19225;SDS011;9747;48.536;12.522;2023-09-08T10:33:09;6.13;;;5.38;;
19225;SDS011;9747;48.536;12.522;2023-09-08T10:35:37;6.53;;;5.35;;
19225;SDS011;9747;48.536;12.522;2023-09-08T10:38:24;6.53;;;5.50;;
19225;SDS011;9747;48.536;12.522;2023-09-08T10:40:53;7.35;;;5.40;;
19225;SDS011;9747;48.536;12.522;2023-09-08T10:43:46;6.82;;;5.50;;
19225;SDS011;9747;48.536;12.522;2023-09-08T10:46:23;6.20;;;5.50;;
19225;SDS011;9747;48.536;12.522;2023-09-08T10:48:54;7.45;;;5.80;;
19225;SDS011;9747;48.536;12.522;2023-09-08T10:51:28;8.13;;;6.65;;
19225;SDS011;9747;48.536;12.522;2023-09-08T10:53:56;7.32;;;6.32;;
19225;SDS011;9747;48.536;12.522;2023-09-08T10:56:26;6.53;;;5.93;;
19225;SDS011;9747;48.536;12.522;2023-09-08T10:58:55;9.02;;;6.18;;
19225;SDS011;9747;48.536;12.522;2023-09-08T11:01:26;6.13;;;5.50;;
19225;SDS011;9747;48.536;12.522;2023-09-08T11:03:55;5.72;;;5.22;;
19225;SDS011;9747;48.536;12.522;2023-09-08T11:06:25;6.35;;;5.60;;
19225;SDS011;9747;48.536;12.522;2023-09-08T11:08:55;6.55;;;5.82;;
19225;SDS011;9747;48.536;12.522;2023-09-08T11:11:23;7.32;;;5.78;;
19225;SDS011;9747;48.536;12.522;2023-09-08T11:13:51;6.13;;;5.60;;
19225;SDS011;9747;48.536;12.522;2023-09-08T11:16:18;6.50;;;5.90;;
19225;SDS011;9747;48.536;12.522;2023-09-08T11:18:49;7.00;;;5.28;;
19225;SDS011;9747;48.536;12.522;2023-09-08T11:21:19;6.80;;;5.50;;
19225;SDS011;9747;48.536;12.522;2023-09-08T11:23:47;7.18;;;5.50;;
19225;SDS011;9747;48.536;12.522;2023-09-08T11:26:14;6.22;;;5.45;;
19225;SDS011;9747;48.536;12.522;2023-09-08T11:28:43;6.10;;;5.25;;
19225;SDS011;9747;48.536;12.522;2023-09-08T11:31:13;8.05;;;5.18;;
19225;SDS011;9747;48.536;12.522;2023-09-08T11:33:40;6.05;;;5.53;;
19225;SDS011;9747;48.536;12.522;2023-09-08T11:36:14;8.27;;;5.43;;
19225;SDS011;9747;48.536;12.522;2023-09-08T11:38:43;5.90;;;5.30;;
19225;SDS011;9747;48.536;12.522;2023-09-08T11:41:11;5.57;;;5.07;;
19225;SDS011;9747;48.536;12.522;2023-09-08T11:43:39;6.20;;;5.60;;
19225;SDS011;9747;48.536;12.522;2023-09-08T11:46:06;7.22;;;6.07;;
19225;SDS011;9747;48.536;12.522;2023-09-08T11:48:35;6.10;;;5.13;;
19225;SDS011;9747;48.536;12.522;2023-09-08T11:51:03;6.72;;;5.70;;
19225;SDS011;9747;48.536;12.522;2023-09-08T11:53:34;6.07;;;5.47;;
19225;SDS011;9747;48.536;12.522;2023-09-08T11:56:03;6.05;;;5.47;;
19225;SDS011;9747;48.536;12.522;2023-09-08T11:58:31;6.25;;;5.22;;
19225;SDS011;9747;48.536;12.522;2023-09-08T12:00:58;6.43;;;5.70;;
19225;SDS011;9747;48.536;12.522;2023-09-08T12:03:26;5.47;;;5.00;;
19225;SDS011;9747;48.536;12.522;2023-09-08T12:05:53;6.90;;;5.68;;
19225;SDS011;9747;48.536;12.522;2023-09-08T12:08:24;6.15;;;5.22;;
19225;SDS011;9747;48.536;12.522;2023-09-08T12:10:53;6.57;;;5.20;;
19225;SDS011;9747;48.536;12.522;2023-09-08T12:13:23;8.40;;;5.35;;
19225;SDS011;9747;48.536;12.522;2023-09-08T12:15:50;10.95;;;5.50;;
19225;SDS011;9747;48.536;12.522;2023-09-08T12:18:18;8.98;;;6.00;;
19225;SDS011;9747;48.536;12.522;2023-09-08T12:20:45;7.22;;;5.03;;
19225;SDS011;9747;48.536;12.522;2023-09-08T12:23:16;9.40;;;5.50;;
19225;SDS011;9747;48.536;12.522;2023-09-08T12:25:45;9.55;;;5.32;;
19225;SDS011;9747;48.536;12.522;2023-09-08T12:28:13;6.07;;;5.15;;
19225;SDS011;9747;48.536;12.522;2023-09-08T12:30:44;5.45;;;4.93;;
19225;SDS011;9747;48.536;12.522;2023-09-08T12:33:11;5.85;;;4.90;;
19225;SDS011;9747;48.536;12.522;2023-09-08T12:35:42;6.20;;;5.20;;
19225;SDS011;9747;48.536;12.522;2023-09-08T12:38:10;6.05;;;5.32;;
19225;SDS011;9747;48.536;12.522;2023-09-08T12:40:37;6.55;;;5.30;;
19225;SDS011;9747;48.536;12.522;2023-09-08T12:43:05;6.18;;;5.32;;
19225;SDS011;9747;48.536;12.522;2023-09-08T12:45:33;5.65;;;5.07;;
19225;SDS011;9747;48.536;12.522;2023-09-08T12:48:02;5.57;;;5.07;;
19225;SDS011;9747;48.536;12.522;2023-09-08T12:50:32;7.70;;;5.20;;
19225;SDS011;9747;48.536;12.522;2023-09-08T12:52:59;6.63;;;5.70;;
19225;SDS011;9747;48.536;12.522;2023-09-08T12:55:27;7.10;;;6.07;;
19225;SDS011;9747;48.536;12.522;2023-09-08T12:57:54;6.47;;;5.38;;
19225;SDS011;9747;48.536;12.522;2023-09-08T13:00:22;8.25;;;5.45;;
19225;SDS011;9747;48.536;12.522;2023-09-08T13:02:51;6.63;;;5.35;;
19225;SDS011;9747;48.536;12.522;2023-09-08T13:05:20;5.90;;;5.30;;
19225;SDS011;9747;48.536;12.522;2023-09-08T13:07:47;5.93;;;5.43;;
19225;SDS011;9747;48.536;12.522;2023-09-08T13:10:15;8.43;;;6.18;;
19225;SDS011;9747;48.536;12.522;2023-09-08T13:12:42;5.40;;;4.80;;
19225;SDS011;9747;48.536;12.522;2023-09-08T13:15:09;6.05;;;5.13;;
19225;SDS011;9747;48.536;12.522;2023-09-08T13:17:37;5.70;;;5.00;;
19225;SDS011;9747;48.536;12.522;2023-09-08T13:20:05;5.28;;;4.82;;
19225;SDS011;9747;48.536;12.522;2023-09-08T13:22:35;8.10;;;5.45;;
19225;SDS011;9747;48.536;12.522;2023-09-08T13:25:03;5.75;;;5.13;;
19225;SDS011;9747;48.536;12.522;2023-09-08T13:27:32;5.88;;;5.28;;
19225;SDS011;9747;48.536;12.522;2023-09-08T13:30:07;6.05;;;5.50;;
19225;SDS011;9747;48.536;12.522;2023-09-08T13:32:35;5.63;;;5.13;;
19225;SDS011;9747;48.536;12.522;2023-09-08T13:35:03;6.05;;;5.43;;
19225;SDS011;9747;48.536;12.522;2023-09-08T13:37:32;8.18;;;5.47;;
19225;SDS011;9747;48.536;12.522;2023-09-08T13:40:01;6.30;;;5.65;;
19225;SDS011;9747;48.536;12.522;2023-09-08T13:42:29;5.68;;;5.18;;
19225;SDS011;9747;48.536;12.522;2023-09-08T13:44:56;6.95;;;5.68;;
19225;SDS011;9747;48.536;12.522;2023-09-08T13:47:24;5.65;;;4.93;;
19225;SDS011;9747;48.536;12.522;2023-09-08T13:49:51;5.65;;;5.10;;
19225;SDS011;9747;48.536;12.522;2023-09-08T13:52:19;6.03;;;5.45;;
19225;SDS011;9747;48.536;12.522;2023-09-08T13:54:46;6.40;;;5.82;;
19225;SDS011;9747;48.536;12.522;2023-09-08T13:57:15;5.53;;;5.00;;
19225;SDS011;9747;48.536;12.522;2023-09-08T13:59:44;6.90;;;5.20;;
19225;SDS011;9747;48.536;12.522;2023-09-08T14:02:12;5.72;;;5.00;;
19225;SDS011;9747;48.536;12.522;2023-09-08T14:04:39;5.60;;;5.10;;
19225;SDS011;9747;48.536;12.522;2023-09-08T14:07:07;5.40;;;4.90;;
19225;SDS011;9747;48.536;12.522;2023-09-08T14:09:35;5.22;;;4.72;;
19225;SDS011;9747;48.536;12.522;2023-09-08T14:12:02;5.47;;;4.97;;
19225;SDS011;9747;48.536;12.522;2023-09-08T14:14:32;5.75;;;5.05;;
19225;SDS011;9747;48.536;12.522;2023-09-08T14:16:59;5.90;;;5.35;;
19225;SDS011;9747;48.536;12.522;2023-09-08T14:19:27;5.15;;;4.63;;
19225;SDS011;9747;48.536;12.522;2023-09-08T14:21:55;5.45;;;4.90;;
19225;SDS011;9747;48.536;12.522;2023-09-08T14:24:22;5.03;;;4.63;;
19225;SDS011;9747;48.536;12.522;2023-09-08T14:26:50;6.78;;;5.18;;
19225;SDS011;9747;48.536;12.522;2023-09-08T14:29:18;5.80;;;5.30;;
19225;SDS011;9747;48.536;12.522;2023-09-08T14:31:48;5.55;;;5.05;;
19225;SDS011;9747;48.536;12.522;2023-09-08T14:34:16;5.43;;;4.90;;
19225;SDS011;9747;48.536;12.522;2023-09-08T14:36:43;6.88;;;4.82;;
19225;SDS011;9747;48.536;12.522;2023-09-08T14:39:11;6.50;;;4.78;;
19225;SDS011;9747;48.536;12.522;2023-09-08T14:41:40;5.13;;;4.72;;
19225;SDS011;9747;48.536;12.522;2023-09-08T14:44:09;4.97;;;4.57;;
19225;SDS011;9747;48.536;12.522;2023-09-08T14:46:39;5.20;;;4.70;;
19225;SDS011;9747;48.536;12.522;2023-09-08T14:49:08;9.38;;;5.20;;
19225;SDS011;9747;48.536;12.522;2023-09-08T14:51:39;6.75;;;5.03;;
19225;SDS011;9747;48.536;12.522;2023-09-08T14:54:06;5.43;;;4.72;;
19225;SDS011;9747;48.536;12.522;2023-09-08T14:56:34;5.43;;;5.03;;